Date,TemperatureHighF,TemperatureAvgF,TemperatureLowF,DewpointHighF,DewpointAvgF,DewpointLowF,HumidityHigh,HumidityAvg,HumidityLow,PressureMaxIn,PressureMinIn,WindSpeedMaxMPH,WindSpeedAvgMPH,GustSpeedMaxMPH,PrecipitationSumIn
2013-2-1,56,39,28,38,32,27,99,81,46,30.63,30.51,1,0,1,0.00
2013-2-2,49,35,24,35,30,24,99,84,58,30.65,30.49,0,0,0,0.00
2013-2-3,60,44,29,33,28,21,96,60,30,30.51,30.37,1,0,1,0.00
2013-2-4,57,43,34,34,30,26,77,61,36,30.40,30.19,0,0,0,0.00
2013-2-5,52,41,35,34,28,22,73,60,43,30.28,30.13,1,0,1,0.00
2013-2-6,50,40,33,27,26,22,75,58,38,30.33,30.13,1,0,1,0.00
2013-2-7,48,36,29,28,23,16,84,61,36,30.29,30.12,1,0,1,0.00
2013-2-8,46,33,20,29,22,18,99,68,36,30.39,30.29,0,0,0,0.00
2013-2-9,49,32,18,30,24,16,90,72,46,30.44,30.34,2,0,2,0.00
2013-2-10,51,36,23,33,24,20,99,68,36,30.51,30.42,1,0,1,0.00
2013-2-11,52,36,20,33,25,17,93,69,39,30.54,30.42,1,0,1,0.00
2013-2-12,52,39,30,36,30,27,96,73,48,30.62,30.53,2,0,2,0.00
2013-2-13,48,39,33,34,31,29,89,75,51,30.65,30.58,1,0,1,0.00
2013-2-14,63,41,26,39,33,26,99,78,41,30.72,30.64,1,0,1,0.00
2013-2-15,56,41,28,40,34,28,99,79,53,30.71,30.48,1,0,1,0.00
2013-2-16,35,33,31,33,31,29,97,91,84,30.49,30.40,1,0,1,0.00
2013-2-17,50,36,26,25,23,21,82,63,33,30.43,30.28,1,0,1,0.00
2013-2-18,41,33,24,29,25,21,93,73,52,30.28,30.08,1,0,1,0.00
2013-2-21,40,35,27,26,25,22,85,67,55,30.37,30.27,2,0,2,0.00
2013-2-22,51,39,29,35,29,24,99,69,50,30.37,30.07,3,0,3,0.00
2013-2-23,45,34,26,28,23,20,92,65,46,30.55,30.23,1,0,1,0.00
2013-2-24,52,35,22,28,22,17,89,64,33,30.58,30.30,1,0,1,0.00
2013-2-25,44,36,27,34,27,20,90,70,49,30.51,30.23,15,0,15,0.02
2013-2-26,52,37,23,24,17,7,82,49,18,30.55,30.43,1,0,1,0.00
2013-2-27,53,41,29,34,24,17,66,53,35,30.53,30.45,1,0,1,0.00
2013-2-28,57,48,40,42,38,29,83,68,57,30.65,30.44,3,0,3,0.00